Rio Cuarto, Rio Cuarto Las Higueras Airport (SAOC)

NameRio Cuarto Las Higueras Airport
CityRio Cuarto
CountryArgentina
ICAOSAOC
IATARCU
Altitude421 m
CoordinatesGoogle Map
Live Air TrafficLiveATC.net
METARSAOC 201800Z 18005KT CAVOK 20/M08 Q1019
2019-09-20 18:00:00 Wind: South (180°) 2.57 m/s - Visibility: > 10000 m - Weather: CAVOK - Temperature: 20 °C - Dew point: -8 °C - Humidity: 14.4% - Pressure: 1019 hPa
Statistics

The table below shows the detailed information of all flights to/from Rio Cuarto, Rio Cuarto Las Higueras Airport (SAOC).